createdAt,value
2023-01-12T00:00:55.645Z,87.90
2023-01-12T00:03:21.975Z,87.63
2023-01-12T00:05:48.320Z,87.90
2023-01-12T00:08:14.653Z,87.91
2023-01-12T00:10:40.987Z,88.57
2023-01-12T00:13:07.312Z,88.15
2023-01-12T00:15:52.562Z,89.20
2023-01-12T00:18:18.888Z,88.28
2023-01-12T00:20:45.251Z,88.28
2023-01-12T00:23:12.415Z,89.01
2023-01-12T00:25:38.726Z,89.98
2023-01-12T00:28:05.057Z,89.92
2023-01-12T00:30:31.386Z,89.79
2023-01-12T00:32:57.706Z,90.80
2023-01-12T00:35:24.031Z,90.11
2023-01-12T00:37:50.343Z,90.24
2023-01-12T00:40:16.747Z,91.45
2023-01-12T00:43:01.917Z,91.46
2023-01-12T00:45:31.036Z,91.88
2023-01-12T00:47:57.346Z,89.18
2023-01-12T00:50:23.685Z,90.41
2023-01-12T00:52:50.015Z,88.96
2023-01-12T00:55:16.411Z,87.92
2023-01-12T00:57:42.817Z,86.12
2023-01-12T01:00:09.166Z,84.58
2023-01-12T01:02:35.511Z,84.39
2023-01-12T01:05:01.900Z,84.03
2023-01-12T01:07:28.200Z,82.06
2023-01-12T01:09:56.318Z,81.52
2023-01-12T01:12:22.634Z,82.13
2023-01-12T01:14:48.984Z,81.90
2023-01-12T01:17:15.310Z,82.48
2023-01-12T01:19:43.437Z,80.90
2023-01-12T01:22:09.985Z,80.73
2023-01-12T01:24:36.287Z,80.90
2023-01-12T01:27:02.628Z,79.86
2023-01-12T01:29:28.972Z,80.28
2023-01-12T01:31:55.304Z,78.81
2023-01-12T01:34:21.703Z,78.43
2023-01-12T01:36:47.999Z,78.87
2023-01-12T01:39:14.303Z,78.53
2023-01-12T01:41:43.469Z,78.53
2023-01-12T01:44:09.935Z,79.01
2023-01-12T01:46:36.377Z,79.42
2023-01-12T01:49:02.750Z,79.24
2023-01-12T01:51:29.066Z,79.42
2023-01-12T01:53:55.373Z,78.15
2023-01-12T01:56:21.736Z,77.04
2023-01-12T01:58:48.135Z,77.91
2023-01-12T02:01:14.462Z,78.21
2023-01-12T02:03:40.840Z,77.23
2023-01-12T02:06:07.161Z,75.96
2023-01-12T02:08:33.498Z,76.43
2023-01-12T02:10:59.931Z,75.72
2023-01-12T02:13:44.968Z,76.12
2023-01-12T02:16:24.217Z,76.54
2023-01-12T02:18:50.596Z,75.33
2023-01-12T02:21:16.939Z,76.02
2023-01-12T02:23:43.289Z,76.54
2023-01-12T02:26:09.608Z,76.62
2023-01-12T02:28:35.936Z,76.65
2023-01-12T02:31:02.388Z,76.30
2023-01-12T02:33:28.750Z,75.99
2023-01-12T02:35:55.166Z,75.78
2023-01-12T02:38:21.518Z,75.89
2023-01-12T02:40:48.415Z,76.42
2023-01-12T02:43:15.089Z,75.86
2023-01-12T02:45:43.116Z,76.04
2023-01-12T02:48:09.510Z,76.39
2023-01-12T02:50:35.855Z,77.01
2023-01-12T02:53:02.369Z,76.78
2023-01-12T02:55:28.710Z,76.60
2023-01-12T02:57:55.022Z,77.21
2023-01-12T03:00:21.336Z,77.39
2023-01-12T03:02:47.749Z,78.16
2023-01-12T03:05:14.143Z,77.84
2023-01-12T03:07:40.469Z,77.83
2023-01-12T03:10:06.774Z,77.64
2023-01-12T03:12:33.086Z,78.49
2023-01-12T03:14:59.408Z,78.14
2023-01-12T03:17:25.748Z,78.75
2023-01-12T03:19:52.075Z,78.97
2023-01-12T03:22:18.394Z,79.49
2023-01-12T03:24:44.692Z,78.69
2023-01-12T03:27:11.058Z,79.86
2023-01-12T03:29:37.766Z,78.92
2023-01-12T03:32:04.112Z,78.67
2023-01-12T03:34:30.415Z,79.18
2023-01-12T03:36:56.721Z,78.38
2023-01-12T03:39:23.175Z,78.63
2023-01-12T03:41:49.504Z,79.22
2023-01-12T03:44:15.864Z,79.39
2023-01-12T03:46:42.217Z,78.23
2023-01-12T03:49:08.855Z,78.94
2023-01-12T03:51:35.184Z,78.66
2023-01-12T03:54:01.601Z,79.24
2023-01-12T03:56:27.966Z,79.19
2023-01-12T03:58:54.296Z,79.37
2023-01-12T04:01:20.733Z,79.28
2023-01-12T04:03:47.111Z,79.11
2023-01-12T04:06:13.496Z,79.90
2023-01-12T04:08:39.813Z,79.63
2023-01-12T04:11:26.123Z,79.68
2023-01-12T04:13:52.449Z,80.03
2023-01-12T04:16:18.888Z,80.07
2023-01-12T04:18:45.244Z,80.68
2023-01-12T04:21:31.520Z,80.57
2023-01-12T04:23:57.863Z,80.47
2023-01-12T04:26:24.202Z,79.83
2023-01-12T04:28:50.511Z,80.20
2023-01-12T04:31:16.847Z,79.73
2023-01-12T04:33:43.255Z,79.73
2023-01-12T04:36:11.358Z,79.87
2023-01-12T04:38:37.816Z,79.81
2023-01-12T04:41:04.128Z,79.29
2023-01-12T04:43:30.452Z,79.79
2023-01-12T04:45:56.789Z,79.67
2023-01-12T04:48:25.185Z,79.70
2023-01-12T04:50:51.693Z,79.43
2023-01-12T04:53:18.173Z,79.39
2023-01-12T04:55:44.542Z,79.98
2023-01-12T04:58:10.861Z,78.90
2023-01-12T05:00:37.266Z,78.79
2023-01-12T05:03:03.719Z,78.71
2023-01-12T05:05:30.050Z,78.83
2023-01-12T05:08:15.125Z,78.72
2023-01-12T05:10:41.472Z,78.92
2023-01-12T05:13:07.786Z,78.55
2023-01-12T05:15:34.102Z,78.47
2023-01-12T05:18:00.515Z,78.57
2023-01-12T05:20:26.866Z,79.36
2023-01-12T05:22:53.297Z,78.84
2023-01-12T05:25:19.658Z,79.39
2023-01-12T05:27:46.005Z,79.73
2023-01-12T05:30:12.420Z,79.13
2023-01-12T05:32:38.767Z,79.63
2023-01-12T05:35:05.092Z,79.88
2023-01-12T05:37:31.452Z,79.78
2023-01-12T05:39:57.782Z,79.97
2023-01-12T05:42:43.111Z,79.55
2023-01-12T05:45:09.425Z,79.68
2023-01-12T05:47:35.743Z,78.96
2023-01-12T05:50:02.084Z,78.83
2023-01-12T05:52:28.489Z,78.33
2023-01-12T05:54:54.868Z,79.02
2023-01-12T05:57:21.221Z,78.73
2023-01-12T05:59:47.528Z,77.91
2023-01-12T06:02:17.542Z,78.62
2023-01-12T06:04:43.915Z,78.62
2023-01-12T06:07:10.250Z,78.29
2023-01-12T06:09:36.592Z,78.51
2023-01-12T06:12:21.951Z,78.22
2023-01-12T06:14:48.300Z,79.26
2023-01-12T06:17:14.616Z,79.32
2023-01-12T06:19:40.935Z,78.39
2023-01-12T06:22:07.248Z,79.40
2023-01-12T06:24:33.551Z,80.12
2023-01-12T06:27:00.147Z,79.76
2023-01-12T06:29:26.486Z,79.40
2023-01-12T06:31:52.825Z,79.25
2023-01-12T06:34:19.207Z,81.98
2023-01-12T06:36:45.533Z,80.75
2023-01-12T06:39:11.854Z,79.74
2023-01-12T06:41:56.992Z,79.78
2023-01-12T06:44:23.303Z,80.12
2023-01-12T06:46:49.634Z,79.91
2023-01-12T06:49:19.888Z,80.46
2023-01-12T06:51:46.229Z,80.65
2023-01-12T06:54:12.551Z,81.43
2023-01-12T06:56:38.879Z,82.47
2023-01-12T06:59:05.217Z,82.45
2023-01-12T07:01:31.703Z,82.51
2023-01-12T07:03:58.044Z,82.28
2023-01-12T07:06:24.378Z,81.80
2023-01-12T07:08:50.713Z,82.11
2023-01-12T07:11:17.145Z,82.28
2023-01-12T07:13:43.442Z,82.21
2023-01-12T07:16:09.891Z,82.16
2023-01-12T07:18:36.350Z,81.64
2023-01-12T07:21:02.672Z,81.92
2023-01-12T07:23:29.016Z,81.92
2023-01-12T07:25:55.358Z,82.34
2023-01-12T07:28:21.687Z,81.80
2023-01-12T07:30:49.987Z,81.29
2023-01-12T07:33:18.591Z,81.37
2023-01-12T07:35:45.187Z,80.91
2023-01-12T07:38:11.506Z,80.79
2023-01-12T07:40:37.972Z,81.09
2023-01-12T07:43:04.291Z,81.39
2023-01-12T07:45:30.687Z,80.51
2023-01-12T07:47:57.102Z,81.28
2023-01-12T07:50:23.743Z,81.21
2023-01-12T07:52:50.082Z,81.18
2023-01-12T07:55:19.873Z,80.77
2023-01-12T07:57:46.243Z,80.65
2023-01-12T08:00:13.366Z,80.08
2023-01-12T08:02:39.701Z,79.30
2023-01-12T08:05:06.099Z,79.89
2023-01-12T08:07:32.754Z,79.54
2023-01-12T08:09:59.104Z,79.58
2023-01-12T08:12:25.433Z,78.90
2023-01-12T08:14:51.769Z,79.29
2023-01-12T08:17:18.099Z,79.17
2023-01-12T08:19:44.415Z,79.58
2023-01-12T08:22:11.103Z,79.52
2023-01-12T08:24:37.451Z,79.41
2023-01-12T08:27:03.759Z,79.32
2023-01-12T08:29:32.178Z,79.00
2023-01-12T08:31:58.496Z,78.08
2023-01-12T08:34:25.049Z,76.89
2023-01-12T08:36:51.411Z,76.39
2023-01-12T08:39:17.735Z,75.26
2023-01-12T08:41:45.147Z,74.79
2023-01-12T08:44:11.752Z,74.37
2023-01-12T08:46:38.239Z,74.59
2023-01-12T08:49:04.642Z,74.32
2023-01-12T08:51:31.024Z,74.32
2023-01-12T08:53:57.349Z,73.51
2023-01-12T08:56:23.691Z,72.82
2023-01-12T08:58:50.185Z,71.42
2023-01-12T09:01:17.377Z,72.13
2023-01-12T09:03:47.365Z,70.75
2023-01-12T09:06:13.781Z,70.79
2023-01-12T09:08:40.139Z,71.57
2023-01-12T09:11:06.453Z,70.57
2023-01-12T09:13:32.811Z,70.63
2023-01-12T09:16:11.630Z,70.37
2023-01-12T09:18:39.461Z,70.98
2023-01-12T09:21:05.826Z,69.70
2023-01-12T09:23:32.183Z,69.75
2023-01-12T09:25:58.542Z,70.18
2023-01-12T09:28:24.936Z,70.75
2023-01-12T09:30:51.327Z,69.56
2023-01-12T09:33:17.834Z,69.39
2023-01-12T09:35:44.690Z,69.21
2023-01-12T09:38:11.956Z,68.92
2023-01-12T09:40:38.428Z,69.17
2023-01-12T09:43:23.608Z,69.23
2023-01-12T09:46:08.739Z,69.32
2023-01-12T09:48:35.122Z,68.99
2023-01-12T09:51:01.445Z,68.58
2023-01-12T09:53:27.841Z,68.20
2023-01-12T09:55:54.154Z,69.90
2023-01-12T09:58:20.488Z,69.47
2023-01-12T10:00:46.827Z,69.15
2023-01-12T10:03:13.277Z,69.26
2023-01-12T10:05:40.185Z,69.25
2023-01-12T10:08:06.629Z,68.95
2023-01-12T10:10:32.946Z,69.02
2023-01-12T10:13:00.073Z,69.76
2023-01-12T10:15:26.465Z,68.05
2023-01-12T10:17:55.778Z,68.26
2023-01-12T10:20:22.139Z,68.69
2023-01-12T10:22:48.482Z,67.83
2023-01-12T10:25:14.995Z,67.54
2023-01-12T10:27:41.315Z,67.26
2023-01-12T10:30:07.657Z,67.58
2023-01-12T10:32:41.493Z,67.48
2023-01-12T10:35:08.090Z,67.63
2023-01-12T10:37:34.414Z,67.62
2023-01-12T10:40:00.785Z,67.46
2023-01-12T10:42:46.020Z,67.78
2023-01-12T10:45:12.446Z,67.25
2023-01-12T10:47:38.796Z,67.06
2023-01-12T10:50:05.122Z,67.08
2023-01-12T10:52:31.510Z,67.59
2023-01-12T10:54:59.066Z,67.34
2023-01-12T10:57:25.447Z,67.33
2023-01-12T10:59:51.764Z,66.85
2023-01-12T11:02:18.284Z,66.66
2023-01-12T11:04:44.758Z,66.42
2023-01-12T11:07:11.087Z,67.11
2023-01-12T11:09:37.457Z,68.14
2023-01-12T11:12:03.788Z,67.61
2023-01-12T11:14:30.144Z,68.01
2023-01-12T11:16:56.494Z,68.41
2023-01-12T11:19:22.976Z,67.89
2023-01-12T11:21:49.298Z,68.49
2023-01-12T11:24:15.627Z,68.01
2023-01-12T11:26:41.966Z,68.06
2023-01-12T11:29:08.259Z,68.81
2023-01-12T11:31:34.581Z,68.52
2023-01-12T11:34:00.914Z,68.66
2023-01-12T11:36:27.224Z,68.97
2023-01-12T11:38:53.534Z,69.75
2023-01-12T11:41:19.845Z,69.93
2023-01-12T11:43:49.276Z,69.03
2023-01-12T11:46:15.638Z,69.42
2023-01-12T11:48:43.426Z,68.80
2023-01-12T11:51:09.737Z,71.11
2023-01-12T11:53:36.089Z,71.26
2023-01-12T11:56:02.412Z,73.28
2023-01-12T11:58:28.751Z,74.56
2023-01-12T12:00:55.133Z,76.85
2023-01-12T12:03:21.743Z,77.08
2023-01-12T12:05:48.124Z,77.74
2023-01-12T12:08:14.527Z,79.34
2023-01-12T12:10:40.889Z,79.17
2023-01-12T12:13:07.252Z,79.40
2023-01-12T12:15:33.643Z,79.72
2023-01-12T12:17:59.993Z,79.86
2023-01-12T12:20:28.264Z,79.68
2023-01-12T12:22:54.666Z,80.40
2023-01-12T12:25:21.176Z,82.66
2023-01-12T12:27:47.583Z,82.78
2023-01-12T12:30:14.044Z,80.13
2023-01-12T12:32:40.465Z,82.94
2023-01-12T12:35:06.788Z,81.87
2023-01-12T12:37:33.131Z,82.03
2023-01-12T12:39:59.466Z,83.18
2023-01-12T12:42:44.649Z,82.94
2023-01-12T12:45:16.877Z,83.75
2023-01-12T12:47:43.357Z,85.89
2023-01-12T12:50:09.738Z,87.20
2023-01-12T12:52:36.257Z,88.25
2023-01-12T12:55:02.589Z,89.45
2023-01-12T12:57:28.942Z,90.88
2023-01-12T12:59:55.360Z,91.10
2023-01-12T13:02:21.815Z,93.16
2023-01-12T13:04:48.224Z,94.17
2023-01-12T13:07:14.546Z,93.88
2023-01-12T13:09:41.048Z,93.44
2023-01-12T13:12:07.418Z,92.81
2023-01-12T13:14:33.736Z,94.63
2023-01-12T13:17:00.091Z,95.37
2023-01-12T13:19:26.452Z,97.55
2023-01-12T13:21:56.291Z,96.52
2023-01-12T13:24:24.728Z,95.29
2023-01-12T13:26:53.865Z,96.20
2023-01-12T13:29:20.194Z,97.62
2023-01-12T13:31:46.514Z,95.03
2023-01-12T13:34:12.839Z,94.35
2023-01-12T13:36:39.186Z,96.57
2023-01-12T13:39:05.521Z,95.87
2023-01-12T13:41:50.891Z,94.26
2023-01-12T13:44:17.246Z,93.93
2023-01-12T13:46:43.649Z,95.23
2023-01-12T13:49:10.341Z,96.41
2023-01-12T13:51:36.792Z,94.93
2023-01-12T13:54:04.311Z,96.56
2023-01-12T13:56:30.810Z,96.08
2023-01-12T13:58:57.157Z,96.81
2023-01-12T14:01:23.539Z,96.46
2023-01-12T14:03:49.911Z,93.43
2023-01-12T14:06:16.289Z,96.23
2023-01-12T14:08:51.038Z,97.37
2023-01-12T14:11:18.359Z,99.19
2023-01-12T14:13:44.687Z,99.62
2023-01-12T14:16:29.882Z,98.17
2023-01-12T14:18:56.274Z,97.64
2023-01-12T14:21:22.635Z,99.86
2023-01-12T14:23:48.966Z,100.00
2023-01-12T14:26:16.642Z,100.00
2023-01-12T14:28:43.171Z,100.00
2023-01-12T14:31:09.946Z,100.00
2023-01-12T14:33:36.310Z,100.00
2023-01-12T14:36:02.673Z,100.00
2023-01-12T14:38:29.024Z,100.00
2023-01-12T14:40:55.350Z,100.00
2023-01-12T14:43:40.509Z,100.00
2023-01-12T14:46:25.556Z,100.00
2023-01-12T14:48:51.967Z,100.00
2023-01-12T14:51:18.288Z,100.00
2023-01-12T14:53:44.641Z,100.00
2023-01-12T14:56:10.991Z,100.00
2023-01-12T14:58:37.364Z,100.00
2023-01-12T15:01:03.811Z,100.00
2023-01-12T15:03:39.335Z,100.00
2023-01-12T15:06:09.890Z,100.00
2023-01-12T15:08:36.647Z,100.00
2023-01-12T15:11:04.733Z,100.00
2023-01-12T15:13:32.936Z,100.00
2023-01-12T15:16:18.428Z,100.00
2023-01-12T15:19:03.609Z,100.00
2023-01-12T15:21:48.575Z,100.00
2023-01-12T15:24:33.469Z,100.00
2023-01-12T15:27:06.328Z,100.00
2023-01-12T15:29:33.198Z,100.00
2023-01-12T15:31:59.552Z,100.00
2023-01-12T15:34:27.720Z,100.00
2023-01-12T15:36:55.705Z,100.00
2023-01-12T15:39:22.036Z,100.00
2023-01-12T15:42:07.431Z,100.00
2023-01-12T15:44:33.760Z,100.00
2023-01-12T15:47:00.107Z,100.00
2023-01-12T15:49:26.938Z,100.00
2023-01-12T15:51:53.453Z,100.00
2023-01-12T15:54:19.864Z,100.00
2023-01-12T15:56:46.219Z,100.00
2023-01-12T15:59:12.546Z,99.72
2023-01-12T16:01:41.611Z,99.52
2023-01-12T16:04:40.931Z,98.21
2023-01-12T16:06:55.899Z,99.81
2023-01-12T16:09:22.225Z,93.87
2023-01-12T16:11:48.564Z,93.20
2023-01-12T16:14:16.728Z,96.09
2023-01-12T16:16:43.117Z,97.09
2023-01-12T16:19:10.086Z,96.96
2023-01-12T16:21:36.418Z,96.66
2023-01-12T16:24:02.911Z,97.16
2023-01-12T16:26:29.410Z,98.41
2023-01-12T16:28:56.241Z,96.61
2023-01-12T16:31:22.642Z,98.08
2023-01-12T16:33:48.991Z,95.67
2023-01-12T16:36:15.324Z,93.21
2023-01-12T16:38:41.688Z,95.40
2023-01-12T16:41:08.012Z,94.12
2023-01-12T16:43:35.687Z,96.62
2023-01-12T16:46:03.713Z,93.68
2023-01-12T16:48:30.193Z,93.24
2023-01-12T16:50:56.560Z,93.17
2023-01-12T16:53:22.870Z,93.52
2023-01-12T16:55:49.199Z,94.37
2023-01-12T16:58:15.620Z,92.60
2023-01-12T17:00:42.003Z,93.73
2023-01-12T17:03:08.535Z,90.05
2023-01-12T17:05:34.935Z,90.15
2023-01-12T17:08:01.268Z,90.26
2023-01-12T17:10:27.743Z,91.13
2023-01-12T17:12:59.175Z,87.77
2023-01-12T17:15:28.767Z,89.75
2023-01-12T17:17:55.774Z,89.60
2023-01-12T17:20:22.469Z,91.03
2023-01-12T17:22:49.117Z,86.28
2023-01-12T17:25:15.998Z,88.03
2023-01-12T17:27:42.352Z,88.09
2023-01-12T17:30:08.669Z,87.62
2023-01-12T17:32:35.148Z,87.36
2023-01-12T17:35:04.407Z,87.89
2023-01-12T17:37:30.744Z,88.63
2023-01-12T17:39:57.107Z,88.31
2023-01-12T17:42:42.582Z,88.65
2023-01-12T17:45:08.905Z,89.41
2023-01-12T17:47:35.209Z,87.85
2023-01-12T17:50:01.551Z,88.86
2023-01-12T17:52:27.919Z,87.72
2023-01-12T17:54:54.442Z,86.78
2023-01-12T17:57:20.845Z,85.93
2023-01-12T17:59:47.284Z,88.49
2023-01-12T18:02:15.244Z,84.88
2023-01-12T18:04:41.677Z,83.73
2023-01-12T18:07:08.013Z,82.55
2023-01-12T18:09:34.411Z,82.17
2023-01-12T18:12:02.681Z,82.97
2023-01-12T18:14:29.009Z,82.31
2023-01-12T18:16:55.363Z,82.10
2023-01-12T18:19:21.724Z,81.49
2023-01-12T18:21:48.077Z,79.42
2023-01-12T18:24:14.447Z,81.89
2023-01-12T18:26:40.788Z,80.75
2023-01-12T18:29:07.272Z,80.21
2023-01-12T18:31:37.238Z,80.98
2023-01-12T18:34:06.141Z,80.29
2023-01-12T18:36:32.475Z,81.83
2023-01-12T18:38:58.818Z,81.40
2023-01-12T18:41:43.983Z,80.75
2023-01-12T18:44:10.292Z,81.04
2023-01-12T18:46:55.347Z,82.82
2023-01-12T18:49:21.658Z,82.42
2023-01-12T18:52:06.807Z,82.64
2023-01-12T18:54:33.891Z,82.75
2023-01-12T18:57:00.236Z,82.61
2023-01-12T18:59:29.032Z,82.28
2023-01-12T19:01:55.631Z,83.40
2023-01-12T19:04:35.371Z,82.15
2023-01-12T19:07:01.986Z,82.38
2023-01-12T19:09:38.549Z,83.62
2023-01-12T19:12:04.965Z,84.21
2023-01-12T19:14:50.309Z,84.33
2023-01-12T19:17:30.172Z,85.29
2023-01-12T19:19:56.585Z,84.19
2023-01-12T19:22:41.850Z,83.10
2023-01-12T19:25:26.929Z,83.09
2023-01-12T19:28:11.921Z,81.49
2023-01-12T19:30:38.737Z,81.70
2023-01-12T19:33:08.485Z,81.91
2023-01-12T19:35:34.918Z,81.02
2023-01-12T19:38:01.260Z,80.87
2023-01-12T19:40:34.464Z,81.53
2023-01-12T19:43:14.553Z,81.01
2023-01-12T19:45:40.915Z,80.06
2023-01-12T19:48:07.728Z,80.17
2023-01-12T19:50:34.083Z,79.48
2023-01-12T19:53:00.487Z,79.13
2023-01-12T19:55:26.953Z,80.46
2023-01-12T19:57:54.534Z,80.40
2023-01-12T20:00:20.989Z,80.85
2023-01-12T20:02:47.426Z,80.23
2023-01-12T20:05:22.028Z,80.05
2023-01-12T20:07:48.586Z,79.63
2023-01-12T20:10:14.916Z,78.63
2023-01-12T20:12:41.381Z,78.87
2023-01-12T20:15:07.785Z,79.04
2023-01-12T20:17:34.117Z,79.32
2023-01-12T20:20:00.447Z,78.64
2023-01-12T20:22:26.825Z,78.47
2023-01-12T20:24:53.156Z,79.90
2023-01-12T20:27:19.549Z,80.95
2023-01-12T20:29:45.865Z,81.14
2023-01-12T20:32:12.202Z,82.03
2023-01-12T20:34:38.548Z,81.50
2023-01-12T20:37:04.853Z,80.64
2023-01-12T20:39:31.185Z,81.11
2023-01-12T20:41:57.581Z,79.59
2023-01-12T20:44:23.941Z,77.73
2023-01-12T20:46:50.420Z,77.02
2023-01-12T20:49:16.783Z,77.57
2023-01-12T20:51:43.129Z,77.97
2023-01-12T20:54:09.453Z,77.38
2023-01-12T20:56:35.801Z,76.59
2023-01-12T20:59:02.619Z,75.95
2023-01-12T21:01:29.143Z,76.52
2023-01-12T21:03:55.581Z,76.60
2023-01-12T21:06:22.305Z,76.27
2023-01-12T21:08:48.634Z,75.43
2023-01-12T21:11:14.998Z,74.68
2023-01-12T21:13:41.509Z,75.95
2023-01-12T21:16:07.997Z,75.96
2023-01-12T21:18:34.335Z,76.34
2023-01-12T21:21:02.634Z,76.00
2023-01-12T21:23:28.986Z,75.46
2023-01-12T21:25:55.734Z,76.31
2023-01-12T21:28:22.134Z,74.92
2023-01-12T21:30:48.482Z,75.13
2023-01-12T21:33:14.815Z,75.67
2023-01-12T21:35:41.184Z,74.29
2023-01-12T21:38:07.605Z,74.41
2023-01-12T21:40:33.925Z,74.79
2023-01-12T21:43:09.614Z,74.29
2023-01-12T21:45:36.033Z,73.61
2023-01-12T21:48:02.363Z,74.58
2023-01-12T21:50:28.691Z,74.37
2023-01-12T21:52:55.003Z,74.19
2023-01-12T21:55:21.421Z,73.96
2023-01-12T21:57:47.989Z,74.13
2023-01-12T22:00:14.360Z,74.71
2023-01-12T22:02:41.646Z,73.56
2023-01-12T22:05:08.019Z,73.93
2023-01-12T22:07:34.325Z,73.22
2023-01-12T22:10:19.114Z,73.34
2023-01-12T22:12:45.512Z,73.07
2023-01-12T22:15:11.811Z,72.80
2023-01-12T22:17:38.313Z,72.78
2023-01-12T22:20:04.646Z,73.17
2023-01-12T22:22:31.052Z,73.21
2023-01-12T22:24:57.379Z,72.36
2023-01-12T22:27:26.513Z,72.25
2023-01-12T22:29:53.023Z,72.79
2023-01-12T22:32:19.325Z,72.40
2023-01-12T22:34:45.662Z,72.01
2023-01-12T22:37:12.789Z,72.13
2023-01-12T22:39:39.181Z,71.34
2023-01-12T22:42:05.510Z,71.24
2023-01-12T22:44:32.373Z,71.40
2023-01-12T22:46:58.708Z,71.71
2023-01-12T22:49:25.016Z,72.23
2023-01-12T22:51:51.335Z,71.63
2023-01-12T22:54:17.700Z,72.00
2023-01-12T22:56:46.059Z,71.80
2023-01-12T22:59:12.440Z,71.66
2023-01-12T23:01:38.942Z,72.09
2023-01-12T23:04:05.776Z,72.10
2023-01-12T23:06:32.272Z,72.58
2023-01-12T23:08:58.779Z,71.78
2023-01-12T23:11:25.307Z,71.72
2023-01-12T23:13:51.783Z,72.62
2023-01-12T23:16:18.361Z,72.60
2023-01-12T23:18:44.861Z,73.02
2023-01-12T23:21:14.309Z,72.16
2023-01-12T23:23:40.810Z,72.84
2023-01-12T23:26:08.779Z,72.83
2023-01-12T23:28:41.670Z,72.16
2023-01-12T23:31:08.819Z,72.15
2023-01-12T23:33:35.368Z,72.33
2023-01-12T23:36:01.962Z,72.35
2023-01-12T23:38:28.429Z,72.46
2023-01-12T23:40:54.929Z,72.96
2023-01-12T23:43:21.464Z,72.96
2023-01-12T23:45:47.952Z,72.88
2023-01-12T23:48:14.711Z,72.32
2023-01-12T23:50:41.178Z,72.57
2023-01-12T23:53:07.675Z,73.16
2023-01-12T23:55:34.157Z,72.26
2023-01-12T23:58:00.744Z,72.08
